sensor_id;sensor_type;location;lat;lon;timestamp;P1;durP1;ratioP1;P2;durP2;ratioP2
18072;SDS011;9161;47.348;9.648;2022-12-18T00:03:46;44.03;;;17.27;;
18072;SDS011;9161;47.348;9.648;2022-12-18T00:08:30;48.73;;;18.50;;
18072;SDS011;9161;47.348;9.648;2022-12-18T00:13:13;45.50;;;16.27;;
18072;SDS011;9161;47.348;9.648;2022-12-18T00:17:57;42.93;;;17.10;;
18072;SDS011;9161;47.348;9.648;2022-12-18T00:22:42;46.63;;;16.90;;
18072;SDS011;9161;47.348;9.648;2022-12-18T00:27:26;44.03;;;17.10;;
18072;SDS011;9161;47.348;9.648;2022-12-18T00:32:09;51.20;;;17.90;;
18072;SDS011;9161;47.348;9.648;2022-12-18T00:36:53;47.80;;;15.90;;
18072;SDS011;9161;47.348;9.648;2022-12-18T00:41:38;42.03;;;14.93;;
18072;SDS011;9161;47.348;9.648;2022-12-18T00:46:39;41.13;;;15.03;;
18072;SDS011;9161;47.348;9.648;2022-12-18T00:51:23;41.20;;;15.10;;
18072;SDS011;9161;47.348;9.648;2022-12-18T00:56:07;44.97;;;16.20;;
18072;SDS011;9161;47.348;9.648;2022-12-18T01:00:52;47.17;;;17.93;;
18072;SDS011;9161;47.348;9.648;2022-12-18T01:05:38;45.67;;;16.43;;
18072;SDS011;9161;47.348;9.648;2022-12-18T01:10:22;44.47;;;16.23;;
18072;SDS011;9161;47.348;9.648;2022-12-18T01:15:07;42.37;;;16.43;;
18072;SDS011;9161;47.348;9.648;2022-12-18T01:19:53;45.93;;;16.43;;
18072;SDS011;9161;47.348;9.648;2022-12-18T01:24:37;44.90;;;15.43;;
18072;SDS011;9161;47.348;9.648;2022-12-18T01:29:20;43.90;;;15.20;;
18072;SDS011;9161;47.348;9.648;2022-12-18T01:34:04;42.57;;;15.47;;
18072;SDS011;9161;47.348;9.648;2022-12-18T01:38:50;36.57;;;15.07;;
18072;SDS011;9161;47.348;9.648;2022-12-18T01:43:44;43.03;;;15.93;;
18072;SDS011;9161;47.348;9.648;2022-12-18T01:48:31;47.90;;;17.67;;
18072;SDS011;9161;47.348;9.648;2022-12-18T01:53:16;46.10;;;16.73;;
18072;SDS011;9161;47.348;9.648;2022-12-18T01:58:03;61.47;;;17.97;;
18072;SDS011;9161;47.348;9.648;2022-12-18T02:02:47;47.40;;;16.60;;
18072;SDS011;9161;47.348;9.648;2022-12-18T02:07:34;41.47;;;16.57;;
18072;SDS011;9161;47.348;9.648;2022-12-18T02:12:26;43.37;;;15.40;;
18072;SDS011;9161;47.348;9.648;2022-12-18T02:17:19;37.77;;;14.20;;
18072;SDS011;9161;47.348;9.648;2022-12-18T02:22:07;39.63;;;14.77;;
18072;SDS011;9161;47.348;9.648;2022-12-18T02:27:02;43.73;;;16.80;;
18072;SDS011;9161;47.348;9.648;2022-12-18T02:31:50;47.63;;;16.60;;
18072;SDS011;9161;47.348;9.648;2022-12-18T02:36:37;43.27;;;16.23;;
18072;SDS011;9161;47.348;9.648;2022-12-18T02:41:23;45.60;;;15.97;;
18072;SDS011;9161;47.348;9.648;2022-12-18T02:51:17;44.93;;;16.33;;
18072;SDS011;9161;47.348;9.648;2022-12-18T02:56:07;45.40;;;16.77;;
18072;SDS011;9161;47.348;9.648;2022-12-18T03:00:58;48.50;;;17.87;;
18072;SDS011;9161;47.348;9.648;2022-12-18T03:05:47;50.53;;;18.00;;
18072;SDS011;9161;47.348;9.648;2022-12-18T03:10:34;48.60;;;18.10;;
18072;SDS011;9161;47.348;9.648;2022-12-18T03:15:22;48.23;;;18.20;;
18072;SDS011;9161;47.348;9.648;2022-12-18T03:20:11;50.30;;;17.60;;
18072;SDS011;9161;47.348;9.648;2022-12-18T03:24:59;53.03;;;17.53;;
18072;SDS011;9161;47.348;9.648;2022-12-18T03:29:45;50.20;;;18.47;;
18072;SDS011;9161;47.348;9.648;2022-12-18T03:34:34;55.17;;;20.27;;
18072;SDS011;9161;47.348;9.648;2022-12-18T03:39:20;59.00;;;19.57;;
18072;SDS011;9161;47.348;9.648;2022-12-18T03:44:06;68.83;;;20.37;;
18072;SDS011;9161;47.348;9.648;2022-12-18T03:48:56;70.40;;;20.50;;
18072;SDS011;9161;47.348;9.648;2022-12-18T03:53:45;58.27;;;19.40;;
18072;SDS011;9161;47.348;9.648;2022-12-18T03:58:33;58.77;;;19.07;;
18072;SDS011;9161;47.348;9.648;2022-12-18T04:03:23;60.70;;;19.80;;
18072;SDS011;9161;47.348;9.648;2022-12-18T04:08:08;57.33;;;18.80;;
18072;SDS011;9161;47.348;9.648;2022-12-18T04:12:55;49.77;;;18.13;;
18072;SDS011;9161;47.348;9.648;2022-12-18T04:17:39;55.13;;;17.77;;
18072;SDS011;9161;47.348;9.648;2022-12-18T04:22:31;52.77;;;17.20;;
18072;SDS011;9161;47.348;9.648;2022-12-18T04:27:15;54.73;;;17.50;;
18072;SDS011;9161;47.348;9.648;2022-12-18T04:31:58;50.37;;;17.07;;
18072;SDS011;9161;47.348;9.648;2022-12-18T04:36:42;51.20;;;17.60;;
18072;SDS011;9161;47.348;9.648;2022-12-18T04:41:27;50.40;;;17.37;;
18072;SDS011;9161;47.348;9.648;2022-12-18T04:46:10;59.87;;;18.23;;
18072;SDS011;9161;47.348;9.648;2022-12-18T04:50:54;56.47;;;17.33;;
18072;SDS011;9161;47.348;9.648;2022-12-18T04:55:37;50.30;;;17.57;;
18072;SDS011;9161;47.348;9.648;2022-12-18T05:00:22;52.30;;;16.63;;
18072;SDS011;9161;47.348;9.648;2022-12-18T05:05:06;46.87;;;16.17;;
18072;SDS011;9161;47.348;9.648;2022-12-18T05:09:50;48.43;;;15.77;;
18072;SDS011;9161;47.348;9.648;2022-12-18T05:14:34;48.57;;;15.27;;
18072;SDS011;9161;47.348;9.648;2022-12-18T05:19:20;38.33;;;14.50;;
18072;SDS011;9161;47.348;9.648;2022-12-18T05:24:04;43.10;;;14.13;;
18072;SDS011;9161;47.348;9.648;2022-12-18T05:28:48;38.53;;;14.10;;
18072;SDS011;9161;47.348;9.648;2022-12-18T05:33:32;47.10;;;14.60;;
18072;SDS011;9161;47.348;9.648;2022-12-18T05:38:19;45.37;;;14.13;;
18072;SDS011;9161;47.348;9.648;2022-12-18T05:43:03;36.53;;;13.10;;
18072;SDS011;9161;47.348;9.648;2022-12-18T05:47:46;41.17;;;13.00;;
18072;SDS011;9161;47.348;9.648;2022-12-18T05:52:30;41.33;;;13.17;;
18072;SDS011;9161;47.348;9.648;2022-12-18T05:57:15;36.20;;;13.83;;
18072;SDS011;9161;47.348;9.648;2022-12-18T06:01:58;35.53;;;12.50;;
18072;SDS011;9161;47.348;9.648;2022-12-18T06:06:42;37.10;;;12.77;;
18072;SDS011;9161;47.348;9.648;2022-12-18T06:11:26;36.40;;;12.00;;
18072;SDS011;9161;47.348;9.648;2022-12-18T06:16:11;33.63;;;11.70;;
18072;SDS011;9161;47.348;9.648;2022-12-18T06:20:55;34.80;;;12.53;;
18072;SDS011;9161;47.348;9.648;2022-12-18T06:25:38;38.17;;;12.73;;
18072;SDS011;9161;47.348;9.648;2022-12-18T06:30:22;34.70;;;12.50;;
18072;SDS011;9161;47.348;9.648;2022-12-18T06:35:07;38.37;;;12.30;;
18072;SDS011;9161;47.348;9.648;2022-12-18T06:39:51;36.33;;;11.97;;
18072;SDS011;9161;47.348;9.648;2022-12-18T06:44:35;32.87;;;11.73;;
18072;SDS011;9161;47.348;9.648;2022-12-18T06:49:18;34.93;;;12.53;;
18072;SDS011;9161;47.348;9.648;2022-12-18T06:54:09;29.73;;;11.73;;
18072;SDS011;9161;47.348;9.648;2022-12-18T06:58:52;35.40;;;12.83;;
18072;SDS011;9161;47.348;9.648;2022-12-18T07:03:36;31.07;;;11.77;;
18072;SDS011;9161;47.348;9.648;2022-12-18T07:08:21;32.47;;;11.23;;
18072;SDS011;9161;47.348;9.648;2022-12-18T07:13:06;36.60;;;12.23;;
18072;SDS011;9161;47.348;9.648;2022-12-18T07:17:49;31.83;;;11.00;;
18072;SDS011;9161;47.348;9.648;2022-12-18T07:22:33;36.53;;;12.27;;
18072;SDS011;9161;47.348;9.648;2022-12-18T07:27:16;34.13;;;12.53;;
18072;SDS011;9161;47.348;9.648;2022-12-18T07:32:02;37.93;;;12.57;;
18072;SDS011;9161;47.348;9.648;2022-12-18T07:36:45;39.33;;;13.57;;
18072;SDS011;9161;47.348;9.648;2022-12-18T07:41:29;37.30;;;13.17;;
18072;SDS011;9161;47.348;9.648;2022-12-18T07:46:13;37.33;;;12.50;;
18072;SDS011;9161;47.348;9.648;2022-12-18T07:50:59;37.50;;;12.57;;
18072;SDS011;9161;47.348;9.648;2022-12-18T07:55:44;39.53;;;12.53;;
18072;SDS011;9161;47.348;9.648;2022-12-18T08:00:48;38.17;;;13.00;;
18072;SDS011;9161;47.348;9.648;2022-12-18T08:05:32;33.63;;;11.47;;
18072;SDS011;9161;47.348;9.648;2022-12-18T08:10:18;31.27;;;11.47;;
18072;SDS011;9161;47.348;9.648;2022-12-18T08:15:02;37.97;;;12.47;;
18072;SDS011;9161;47.348;9.648;2022-12-18T08:19:46;40.83;;;13.43;;
18072;SDS011;9161;47.348;9.648;2022-12-18T08:24:30;43.20;;;13.93;;
18072;SDS011;9161;47.348;9.648;2022-12-18T08:29:15;38.57;;;12.07;;
18072;SDS011;9161;47.348;9.648;2022-12-18T08:34:02;36.67;;;12.60;;
18072;SDS011;9161;47.348;9.648;2022-12-18T08:38:46;40.03;;;12.40;;
18072;SDS011;9161;47.348;9.648;2022-12-18T08:43:30;34.70;;;12.13;;
18072;SDS011;9161;47.348;9.648;2022-12-18T08:48:32;32.97;;;12.27;;
18072;SDS011;9161;47.348;9.648;2022-12-18T08:53:16;37.50;;;13.03;;
18072;SDS011;9161;47.348;9.648;2022-12-18T08:58:00;37.07;;;12.40;;
18072;SDS011;9161;47.348;9.648;2022-12-18T09:02:44;36.60;;;12.33;;
18072;SDS011;9161;47.348;9.648;2022-12-18T09:07:29;38.70;;;12.77;;
18072;SDS011;9161;47.348;9.648;2022-12-18T09:12:15;30.07;;;11.00;;
18072;SDS011;9161;47.348;9.648;2022-12-18T09:16:58;33.63;;;12.87;;
18072;SDS011;9161;47.348;9.648;2022-12-18T09:21:42;34.30;;;11.77;;
18072;SDS011;9161;47.348;9.648;2022-12-18T09:26:30;35.37;;;12.77;;
18072;SDS011;9161;47.348;9.648;2022-12-18T09:31:14;38.23;;;12.83;;
18072;SDS011;9161;47.348;9.648;2022-12-18T09:36:00;33.20;;;12.00;;
18072;SDS011;9161;47.348;9.648;2022-12-18T09:40:53;32.13;;;11.63;;
18072;SDS011;9161;47.348;9.648;2022-12-18T09:45:45;27.53;;;10.67;;
18072;SDS011;9161;47.348;9.648;2022-12-18T09:50:34;27.67;;;10.47;;
18072;SDS011;9161;47.348;9.648;2022-12-18T09:55:22;27.53;;;10.70;;
18072;SDS011;9161;47.348;9.648;2022-12-18T10:00:17;30.83;;;12.13;;
18072;SDS011;9161;47.348;9.648;2022-12-18T10:05:05;32.57;;;11.50;;
18072;SDS011;9161;47.348;9.648;2022-12-18T10:09:53;28.60;;;10.23;;
18072;SDS011;9161;47.348;9.648;2022-12-18T10:14:46;32.80;;;12.17;;
18072;SDS011;9161;47.348;9.648;2022-12-18T10:19:37;29.73;;;11.03;;
18072;SDS011;9161;47.348;9.648;2022-12-18T10:24:35;26.83;;;10.23;;
18072;SDS011;9161;47.348;9.648;2022-12-18T10:29:24;24.43;;;9.37;;
18072;SDS011;9161;47.348;9.648;2022-12-18T10:34:09;26.47;;;9.70;;
18072;SDS011;9161;47.348;9.648;2022-12-18T10:38:52;28.67;;;10.97;;
18072;SDS011;9161;47.348;9.648;2022-12-18T10:43:38;26.57;;;10.73;;
18072;SDS011;9161;47.348;9.648;2022-12-18T10:48:22;26.43;;;10.67;;
18072;SDS011;9161;47.348;9.648;2022-12-18T10:53:13;28.37;;;10.97;;
18072;SDS011;9161;47.348;9.648;2022-12-18T10:58:13;24.47;;;9.97;;
18072;SDS011;9161;47.348;9.648;2022-12-18T11:03:11;25.13;;;10.23;;
18072;SDS011;9161;47.348;9.648;2022-12-18T11:08:19;40.70;;;15.50;;
18072;SDS011;9161;47.348;9.648;2022-12-18T11:13:09;36.33;;;13.80;;
18072;SDS011;9161;47.348;9.648;2022-12-18T11:17:54;25.40;;;11.17;;
18072;SDS011;9161;47.348;9.648;2022-12-18T11:22:40;54.70;;;22.40;;
18072;SDS011;9161;47.348;9.648;2022-12-18T11:27:24;100.80;;;34.43;;
18072;SDS011;9161;47.348;9.648;2022-12-18T11:32:28;204.60;;;58.23;;
18072;SDS011;9161;47.348;9.648;2022-12-18T11:37:15;89.17;;;29.87;;
18072;SDS011;9161;47.348;9.648;2022-12-18T11:42:04;131.13;;;43.57;;
18072;SDS011;9161;47.348;9.648;2022-12-18T11:46:55;33.07;;;13.53;;
18072;SDS011;9161;47.348;9.648;2022-12-18T11:51:44;52.20;;;20.10;;
18072;SDS011;9161;47.348;9.648;2022-12-18T11:56:35;38.53;;;14.30;;
18072;SDS011;9161;47.348;9.648;2022-12-18T12:01:28;69.10;;;25.60;;
18072;SDS011;9161;47.348;9.648;2022-12-18T12:06:26;59.37;;;21.07;;
18072;SDS011;9161;47.348;9.648;2022-12-18T12:11:20;81.13;;;33.30;;
18072;SDS011;9161;47.348;9.648;2022-12-18T12:16:14;38.70;;;15.27;;
18072;SDS011;9161;47.348;9.648;2022-12-18T12:21:03;34.37;;;13.33;;
18072;SDS011;9161;47.348;9.648;2022-12-18T12:25:54;33.90;;;13.97;;
18072;SDS011;9161;47.348;9.648;2022-12-18T12:30:45;31.50;;;13.03;;
18072;SDS011;9161;47.348;9.648;2022-12-18T12:35:42;37.53;;;13.70;;
18072;SDS011;9161;47.348;9.648;2022-12-18T12:40:33;40.23;;;13.70;;
18072;SDS011;9161;47.348;9.648;2022-12-18T12:45:36;37.77;;;13.37;;
18072;SDS011;9161;47.348;9.648;2022-12-18T12:50:26;36.40;;;12.83;;
18072;SDS011;9161;47.348;9.648;2022-12-18T12:55:13;34.17;;;12.90;;
18072;SDS011;9161;47.348;9.648;2022-12-18T13:00:04;32.27;;;12.53;;
18072;SDS011;9161;47.348;9.648;2022-12-18T13:04:52;29.60;;;11.87;;
18072;SDS011;9161;47.348;9.648;2022-12-18T13:15:21;33.43;;;13.07;;
18072;SDS011;9161;47.348;9.648;2022-12-18T13:20:07;35.70;;;13.20;;
18072;SDS011;9161;47.348;9.648;2022-12-18T13:24:56;27.37;;;11.10;;
18072;SDS011;9161;47.348;9.648;2022-12-18T13:29:41;38.63;;;13.57;;
18072;SDS011;9161;47.348;9.648;2022-12-18T13:34:27;33.97;;;12.77;;
18072;SDS011;9161;47.348;9.648;2022-12-18T13:39:23;36.53;;;13.07;;
18072;SDS011;9161;47.348;9.648;2022-12-18T13:44:22;31.13;;;12.57;;
18072;SDS011;9161;47.348;9.648;2022-12-18T13:49:20;30.50;;;11.97;;
18072;SDS011;9161;47.348;9.648;2022-12-18T13:54:13;27.60;;;11.53;;
18072;SDS011;9161;47.348;9.648;2022-12-18T13:59:03;35.23;;;13.87;;
18072;SDS011;9161;47.348;9.648;2022-12-18T14:08:52;34.47;;;12.77;;
18072;SDS011;9161;47.348;9.648;2022-12-18T14:13:38;31.13;;;12.30;;
18072;SDS011;9161;47.348;9.648;2022-12-18T14:18:25;30.57;;;11.77;;
18072;SDS011;9161;47.348;9.648;2022-12-18T14:23:24;27.83;;;11.73;;
18072;SDS011;9161;47.348;9.648;2022-12-18T14:28:11;33.33;;;13.10;;
18072;SDS011;9161;47.348;9.648;2022-12-18T14:33:04;36.20;;;12.93;;
18072;SDS011;9161;47.348;9.648;2022-12-18T14:37:49;38.73;;;13.77;;
18072;SDS011;9161;47.348;9.648;2022-12-18T14:42:32;38.13;;;12.73;;
18072;SDS011;9161;47.348;9.648;2022-12-18T14:47:16;36.13;;;11.93;;
18072;SDS011;9161;47.348;9.648;2022-12-18T14:52:03;32.50;;;13.07;;
18072;SDS011;9161;47.348;9.648;2022-12-18T14:56:51;33.83;;;12.60;;
18072;SDS011;9161;47.348;9.648;2022-12-18T15:01:44;41.33;;;14.40;;
18072;SDS011;9161;47.348;9.648;2022-12-18T15:06:32;37.67;;;12.90;;
18072;SDS011;9161;47.348;9.648;2022-12-18T15:16:31;39.47;;;13.07;;
18072;SDS011;9161;47.348;9.648;2022-12-18T15:21:18;38.30;;;13.93;;
18072;SDS011;9161;47.348;9.648;2022-12-18T15:26:04;33.17;;;13.27;;
18072;SDS011;9161;47.348;9.648;2022-12-18T15:36:08;37.10;;;13.97;;
18072;SDS011;9161;47.348;9.648;2022-12-18T15:40:55;39.67;;;13.17;;
18072;SDS011;9161;47.348;9.648;2022-12-18T15:45:42;42.23;;;14.97;;
18072;SDS011;9161;47.348;9.648;2022-12-18T15:50:29;39.20;;;14.30;;
18072;SDS011;9161;47.348;9.648;2022-12-18T15:55:15;41.93;;;14.27;;
18072;SDS011;9161;47.348;9.648;2022-12-18T16:00:20;43.37;;;15.53;;
18072;SDS011;9161;47.348;9.648;2022-12-18T16:05:08;46.77;;;15.50;;
18072;SDS011;9161;47.348;9.648;2022-12-18T16:10:00;42.70;;;16.07;;
18072;SDS011;9161;47.348;9.648;2022-12-18T16:14:45;42.80;;;15.30;;
18072;SDS011;9161;47.348;9.648;2022-12-18T16:19:34;52.00;;;16.43;;
18072;SDS011;9161;47.348;9.648;2022-12-18T16:24:21;49.40;;;15.70;;
18072;SDS011;9161;47.348;9.648;2022-12-18T16:29:08;44.57;;;15.50;;
18072;SDS011;9161;47.348;9.648;2022-12-18T16:34:09;43.77;;;15.43;;
18072;SDS011;9161;47.348;9.648;2022-12-18T16:38:56;47.77;;;17.53;;
18072;SDS011;9161;47.348;9.648;2022-12-18T16:43:42;48.83;;;17.23;;
18072;SDS011;9161;47.348;9.648;2022-12-18T16:48:37;49.00;;;18.47;;
18072;SDS011;9161;47.348;9.648;2022-12-18T16:53:22;58.00;;;20.67;;
18072;SDS011;9161;47.348;9.648;2022-12-18T16:58:08;60.50;;;19.57;;
18072;SDS011;9161;47.348;9.648;2022-12-18T17:02:59;56.17;;;18.83;;
18072;SDS011;9161;47.348;9.648;2022-12-18T17:07:47;61.80;;;21.13;;
18072;SDS011;9161;47.348;9.648;2022-12-18T17:12:32;58.67;;;17.97;;
18072;SDS011;9161;47.348;9.648;2022-12-18T17:17:18;57.10;;;19.80;;
18072;SDS011;9161;47.348;9.648;2022-12-18T17:22:04;54.47;;;19.57;;
18072;SDS011;9161;47.348;9.648;2022-12-18T17:26:52;54.00;;;20.57;;
18072;SDS011;9161;47.348;9.648;2022-12-18T17:31:39;53.83;;;19.43;;
18072;SDS011;9161;47.348;9.648;2022-12-18T17:36:25;59.20;;;20.80;;
18072;SDS011;9161;47.348;9.648;2022-12-18T17:41:12;63.20;;;20.30;;
18072;SDS011;9161;47.348;9.648;2022-12-18T17:46:02;62.13;;;20.00;;
18072;SDS011;9161;47.348;9.648;2022-12-18T17:50:50;62.03;;;20.93;;
18072;SDS011;9161;47.348;9.648;2022-12-18T17:55:35;69.73;;;23.07;;
18072;SDS011;9161;47.348;9.648;2022-12-18T18:00:20;64.90;;;21.73;;
18072;SDS011;9161;47.348;9.648;2022-12-18T18:05:15;64.00;;;20.20;;
18072;SDS011;9161;47.348;9.648;2022-12-18T18:10:02;58.00;;;20.47;;
18072;SDS011;9161;47.348;9.648;2022-12-18T18:14:47;65.40;;;20.37;;
18072;SDS011;9161;47.348;9.648;2022-12-18T18:19:33;56.77;;;20.97;;
18072;SDS011;9161;47.348;9.648;2022-12-18T18:24:21;61.53;;;20.17;;
18072;SDS011;9161;47.348;9.648;2022-12-18T18:29:07;58.73;;;20.60;;
18072;SDS011;9161;47.348;9.648;2022-12-18T18:33:57;61.70;;;20.80;;
18072;SDS011;9161;47.348;9.648;2022-12-18T18:38:45;66.97;;;21.23;;
18072;SDS011;9161;47.348;9.648;2022-12-18T18:43:32;59.77;;;20.53;;
18072;SDS011;9161;47.348;9.648;2022-12-18T18:48:18;60.77;;;19.80;;
18072;SDS011;9161;47.348;9.648;2022-12-18T18:53:07;58.20;;;20.40;;
18072;SDS011;9161;47.348;9.648;2022-12-18T18:57:52;59.40;;;19.33;;
18072;SDS011;9161;47.348;9.648;2022-12-18T19:02:38;64.70;;;20.10;;
18072;SDS011;9161;47.348;9.648;2022-12-18T19:07:24;58.00;;;19.97;;
18072;SDS011;9161;47.348;9.648;2022-12-18T19:12:11;63.27;;;20.73;;
18072;SDS011;9161;47.348;9.648;2022-12-18T19:17:13;70.07;;;21.50;;
18072;SDS011;9161;47.348;9.648;2022-12-18T19:21:59;63.13;;;20.90;;
18072;SDS011;9161;47.348;9.648;2022-12-18T19:26:45;66.90;;;21.73;;
18072;SDS011;9161;47.348;9.648;2022-12-18T19:31:31;68.47;;;21.73;;
18072;SDS011;9161;47.348;9.648;2022-12-18T19:36:18;69.53;;;21.93;;
18072;SDS011;9161;47.348;9.648;2022-12-18T19:41:06;67.70;;;22.10;;
18072;SDS011;9161;47.348;9.648;2022-12-18T19:45:55;71.63;;;22.07;;
18072;SDS011;9161;47.348;9.648;2022-12-18T19:51:03;66.20;;;21.90;;
18072;SDS011;9161;47.348;9.648;2022-12-18T19:55:49;67.33;;;21.93;;
18072;SDS011;9161;47.348;9.648;2022-12-18T20:00:35;69.70;;;21.70;;
18072;SDS011;9161;47.348;9.648;2022-12-18T20:05:21;65.27;;;21.23;;
18072;SDS011;9161;47.348;9.648;2022-12-18T20:10:10;66.83;;;22.67;;
18072;SDS011;9161;47.348;9.648;2022-12-18T20:14:59;68.87;;;21.70;;
18072;SDS011;9161;47.348;9.648;2022-12-18T20:19:57;67.83;;;22.90;;
18072;SDS011;9161;47.348;9.648;2022-12-18T20:24:56;65.23;;;22.10;;
18072;SDS011;9161;47.348;9.648;2022-12-18T20:29:44;75.03;;;23.83;;
18072;SDS011;9161;47.348;9.648;2022-12-18T20:34:29;68.63;;;22.33;;
18072;SDS011;9161;47.348;9.648;2022-12-18T20:39:17;67.60;;;22.53;;
18072;SDS011;9161;47.348;9.648;2022-12-18T20:44:01;66.70;;;22.40;;
18072;SDS011;9161;47.348;9.648;2022-12-18T20:48:54;62.33;;;20.50;;
18072;SDS011;9161;47.348;9.648;2022-12-18T20:53:39;59.60;;;21.07;;
18072;SDS011;9161;47.348;9.648;2022-12-18T20:58:25;61.97;;;20.77;;
18072;SDS011;9161;47.348;9.648;2022-12-18T21:03:10;60.63;;;20.77;;
18072;SDS011;9161;47.348;9.648;2022-12-18T21:07:54;64.00;;;22.37;;
18072;SDS011;9161;47.348;9.648;2022-12-18T21:12:39;69.90;;;22.27;;
18072;SDS011;9161;47.348;9.648;2022-12-18T21:17:46;63.77;;;21.40;;
18072;SDS011;9161;47.348;9.648;2022-12-18T21:22:30;64.60;;;22.23;;
18072;SDS011;9161;47.348;9.648;2022-12-18T21:27:14;68.93;;;23.30;;
18072;SDS011;9161;47.348;9.648;2022-12-18T21:31:58;69.63;;;24.20;;
18072;SDS011;9161;47.348;9.648;2022-12-18T21:36:43;68.83;;;22.70;;
18072;SDS011;9161;47.348;9.648;2022-12-18T21:41:28;66.37;;;22.17;;
18072;SDS011;9161;47.348;9.648;2022-12-18T21:46:32;68.80;;;22.17;;
18072;SDS011;9161;47.348;9.648;2022-12-18T21:51:15;63.33;;;21.70;;
18072;SDS011;9161;47.348;9.648;2022-12-18T21:56:00;65.27;;;21.40;;
18072;SDS011;9161;47.348;9.648;2022-12-18T22:00:45;73.50;;;23.33;;
18072;SDS011;9161;47.348;9.648;2022-12-18T22:05:29;60.13;;;22.00;;
18072;SDS011;9161;47.348;9.648;2022-12-18T22:10:12;68.80;;;21.97;;
18072;SDS011;9161;47.348;9.648;2022-12-18T22:14:57;70.83;;;22.10;;
18072;SDS011;9161;47.348;9.648;2022-12-18T22:19:41;67.77;;;22.50;;
18072;SDS011;9161;47.348;9.648;2022-12-18T22:24:25;69.03;;;22.83;;
18072;SDS011;9161;47.348;9.648;2022-12-18T22:29:10;65.80;;;23.10;;
18072;SDS011;9161;47.348;9.648;2022-12-18T22:34:16;66.27;;;23.27;;
18072;SDS011;9161;47.348;9.648;2022-12-18T22:39:03;71.67;;;21.67;;
18072;SDS011;9161;47.348;9.648;2022-12-18T22:43:49;59.17;;;21.00;;
18072;SDS011;9161;47.348;9.648;2022-12-18T22:48:32;65.20;;;21.73;;
18072;SDS011;9161;47.348;9.648;2022-12-18T22:53:18;65.90;;;22.30;;
18072;SDS011;9161;47.348;9.648;2022-12-18T22:58:03;70.83;;;22.17;;
18072;SDS011;9161;47.348;9.648;2022-12-18T23:02:46;66.60;;;21.50;;
18072;SDS011;9161;47.348;9.648;2022-12-18T23:07:36;58.80;;;21.07;;
18072;SDS011;9161;47.348;9.648;2022-12-18T23:12:21;60.77;;;21.57;;
18072;SDS011;9161;47.348;9.648;2022-12-18T23:17:05;64.10;;;22.27;;
18072;SDS011;9161;47.348;9.648;2022-12-18T23:21:49;57.30;;;21.37;;
18072;SDS011;9161;47.348;9.648;2022-12-18T23:26:35;71.20;;;22.47;;
18072;SDS011;9161;47.348;9.648;2022-12-18T23:31:21;57.70;;;20.60;;
18072;SDS011;9161;47.348;9.648;2022-12-18T23:36:06;60.10;;;22.37;;
18072;SDS011;9161;47.348;9.648;2022-12-18T23:40:50;65.80;;;22.37;;
18072;SDS011;9161;47.348;9.648;2022-12-18T23:45:37;63.70;;;22.33;;
18072;SDS011;9161;47.348;9.648;2022-12-18T23:50:22;64.83;;;22.63;;
18072;SDS011;9161;47.348;9.648;2022-12-18T23:55:10;65.37;;;22.70;;
18072;SDS011;9161;47.348;9.648;2022-12-18T23:59:54;56.23;;;21.60;;
